createdAt,value
2019-04-10T04:01:18.833Z,92968.36
2019-04-10T04:03:44.791Z,92967.58
2019-04-10T04:06:11.158Z,92968.16
2019-04-10T04:08:37.441Z,92973.62
2019-04-10T04:11:03.589Z,92974.14
2019-04-10T04:13:29.365Z,92964.97
2019-04-10T04:15:55.326Z,92963.94
2019-04-10T04:18:21.404Z,92967.84
2019-04-10T04:20:47.560Z,92962.08
2019-04-10T04:23:13.819Z,92960.26
2019-04-10T04:25:40.565Z,92961.84
2019-04-10T04:28:07.096Z,92966.55
2019-04-10T04:30:34.054Z,92972.99
2019-04-10T04:33:00.395Z,92967.73
2019-04-10T04:35:26.059Z,92969.59
2019-04-10T04:37:52.641Z,92966.15
2019-04-10T04:40:19.674Z,92967.13
2019-04-10T04:42:45.896Z,92963.98
2019-04-10T04:45:12.770Z,92973.37
2019-04-10T04:47:39.152Z,92975.67
2019-04-10T04:50:05.605Z,92978.28
2019-04-10T04:52:31.426Z,92979.55
2019-04-10T04:54:57.566Z,92978.48
2019-04-10T04:57:23.290Z,92980.33
2019-04-10T04:59:49.018Z,92975.63
2019-04-10T05:02:14.811Z,92977.17
2019-04-10T05:04:41.630Z,92983.45
2019-04-10T05:07:08.342Z,92984.52
2019-04-10T05:09:38.409Z,92982.23
2019-04-10T05:12:02.861Z,92989.02
2019-04-10T05:14:29.479Z,92979.39
2019-04-10T05:16:55.506Z,92987.41
2019-04-10T05:19:21.401Z,92981.40
2019-04-10T05:21:47.696Z,92982.39
2019-04-10T05:24:13.834Z,92983.70
2019-04-10T05:26:40.557Z,92987.61
2019-04-10T05:29:06.382Z,92988.83
2019-04-10T05:31:53.099Z,92995.94
2019-04-10T05:34:19.893Z,92991.24
2019-04-10T05:36:46.973Z,92991.98
2019-04-10T05:39:12.860Z,93000.05
2019-04-10T05:41:38.622Z,92994.83
2019-04-10T05:44:04.684Z,92998.51
2019-04-10T05:46:30.447Z,92995.94
2019-04-10T05:48:56.288Z,92999.55
2019-04-10T05:51:23.358Z,93002.90
2019-04-10T05:53:52.296Z,92993.73
2019-04-10T05:56:16.899Z,92996.77
2019-04-10T05:58:42.898Z,92998.82
2019-04-10T06:01:09.512Z,92992.18
2019-04-10T06:03:36.573Z,92998.14
2019-04-10T06:06:02.493Z,92999.77
2019-04-10T06:08:28.243Z,93010.20
2019-04-10T06:10:54.016Z,93002.09
2019-04-10T06:13:19.796Z,93009.25
2019-04-10T06:15:45.559Z,93002.92
2019-04-10T06:18:12.770Z,93007.53
2019-04-10T06:20:39.685Z,93009.16
2019-04-10T06:23:05.567Z,93012.56
2019-04-10T06:25:33.398Z,93013.36
2019-04-10T06:27:59.358Z,93007.30
2019-04-10T06:30:25.936Z,93006.31
2019-04-10T06:32:51.845Z,93008.92
2019-04-10T06:35:17.661Z,93003.27
2019-04-10T06:37:43.372Z,93004.42
2019-04-10T06:40:17.041Z,92997.56
2019-04-10T06:42:45.803Z,92998.08
2019-04-10T06:45:05.749Z,93001.44
2019-04-10T06:47:31.674Z,92998.68
2019-04-10T06:49:57.448Z,93002.30
2019-04-10T06:52:23.700Z,92999.34
2019-04-10T06:54:51.047Z,92999.02
2019-04-10T06:57:17.273Z,92999.81
2019-04-10T06:59:43.014Z,93007.37
2019-04-10T07:02:20.275Z,92996.92
2019-04-10T07:04:46.155Z,92999.08
2019-04-10T07:07:09.349Z,93002.52
2019-04-10T07:09:32.457Z,93001.88
2019-04-10T07:12:01.072Z,93006.62
2019-04-10T07:14:26.795Z,93002.09
2019-04-10T07:16:53.058Z,93004.81
2019-04-10T07:19:19.784Z,93000.27
2019-04-10T07:21:45.691Z,93001.71
2019-04-10T07:24:13.736Z,93007.13
2019-04-10T07:26:42.211Z,93014.78
2019-04-10T07:29:06.800Z,93014.36
2019-04-10T07:31:36.040Z,93012.27
2019-04-10T07:34:01.309Z,93011.17
2019-04-10T07:36:27.221Z,93008.51
2019-04-10T07:38:55.715Z,93014.10
2019-04-10T07:41:23.231Z,93014.52
2019-04-10T07:43:53.912Z,93009.08
2019-04-10T07:46:17.289Z,93008.95
2019-04-10T07:48:43.615Z,93005.16
2019-04-10T07:51:09.514Z,93010.16
2019-04-10T07:53:35.594Z,93011.81
2019-04-10T07:56:06.805Z,93009.77
2019-04-10T07:58:29.316Z,93016.77
2019-04-10T08:00:55.172Z,93011.13
2019-04-10T08:03:20.937Z,93013.13
2019-04-10T08:05:46.716Z,93018.58
2019-04-10T08:08:12.731Z,93011.82
2019-04-10T08:10:41.185Z,93022.21
2019-04-10T08:13:06.966Z,93017.56
2019-04-10T08:15:33.641Z,93018.02
2019-04-10T08:18:00.396Z,93019.33
2019-04-10T08:20:26.276Z,93023.20
2019-04-10T08:22:53.248Z,92999.34
2019-04-10T08:25:19.107Z,93020.55
2019-04-10T08:27:45.879Z,93017.81
2019-04-10T08:30:12.552Z,93020.06
2019-04-10T08:32:51.448Z,93025.33
2019-04-10T08:35:06.993Z,93020.57
2019-04-10T08:37:32.906Z,93022.69
2019-04-10T08:39:59.056Z,93026.63
2019-04-10T08:42:25.008Z,93030.91
2019-04-10T08:44:50.770Z,93033.18
2019-04-10T08:47:17.288Z,93028.98
2019-04-10T08:49:43.306Z,93034.46
2019-04-10T08:52:10.366Z,93031.91
2019-04-10T08:54:36.420Z,93032.87
2019-04-10T08:57:03.275Z,93035.55
2019-04-10T08:59:29.996Z,93035.70
2019-04-10T09:01:56.073Z,93032.45
2019-04-10T09:04:21.837Z,93033.94
2019-04-10T09:06:47.633Z,93040.48
2019-04-10T09:09:13.388Z,93041.20
2019-04-10T09:11:39.429Z,93041.80
2019-04-10T09:14:05.557Z,93043.27
2019-04-10T09:16:31.253Z,93039.11
2019-04-10T09:18:57.877Z,93040.64
2019-04-10T09:21:23.790Z,93038.12
2019-04-10T09:23:52.811Z,93038.98
2019-04-10T09:26:17.327Z,93043.13
2019-04-10T09:28:43.087Z,93044.77
2019-04-10T09:31:09.358Z,93044.52
2019-04-10T09:33:35.160Z,93047.20
2019-04-10T09:36:00.928Z,93044.26
2019-04-10T09:38:26.689Z,93040.14
2019-04-10T09:40:53.291Z,93042.55
2019-04-10T09:43:19.378Z,93041.84
2019-04-10T09:45:45.920Z,93040.00
2019-04-10T09:48:12.795Z,93046.06
2019-04-10T09:50:39.615Z,93049.48
2019-04-10T09:53:05.945Z,93042.52
2019-04-10T09:55:31.978Z,93043.83
2019-04-10T09:57:57.772Z,93054.48
2019-04-10T10:00:25.752Z,93050.62
2019-04-10T10:02:52.893Z,93056.13
2019-04-10T10:05:18.859Z,93056.67
2019-04-10T10:07:45.182Z,93054.40
2019-04-10T10:10:12.639Z,93057.76
2019-04-10T10:12:38.769Z,93057.23
2019-04-10T10:15:07.250Z,93058.20
2019-04-10T10:17:33.126Z,93061.30
2019-04-10T10:19:59.509Z,93067.88
2019-04-10T10:22:25.342Z,93062.83
2019-04-10T10:24:51.106Z,93058.44
2019-04-10T10:27:17.792Z,93067.13
2019-04-10T10:29:44.072Z,93064.51
2019-04-10T10:32:10.908Z,93066.55
2019-04-10T10:34:36.793Z,93064.28
2019-04-10T10:37:03.901Z,93065.03
2019-04-10T10:39:30.745Z,93069.11
2019-04-10T10:41:56.625Z,93067.23
2019-04-10T10:44:22.406Z,93077.06
2019-04-10T10:46:48.177Z,93071.77
2019-04-10T10:49:14.225Z,93072.00
2019-04-10T10:51:39.990Z,93077.77
2019-04-10T10:54:06.066Z,93074.86
2019-04-10T10:56:32.038Z,93081.37
2019-04-10T10:58:59.018Z,93072.84
2019-04-10T11:01:25.260Z,93077.03
2019-04-10T11:03:51.032Z,93071.15
2019-04-10T11:06:17.848Z,93083.62
2019-04-10T11:08:43.918Z,93075.54
2019-04-10T11:11:10.238Z,93078.94
2019-04-10T11:13:37.096Z,93079.95
2019-04-10T11:16:05.630Z,93085.25
2019-04-10T11:18:30.921Z,93083.28
2019-04-10T11:21:02.937Z,93088.38
2019-04-10T11:23:24.712Z,93087.05
2019-04-10T11:25:50.836Z,93089.81
2019-04-10T11:28:18.547Z,93095.14
2019-04-10T11:30:45.004Z,93094.66
2019-04-10T11:33:11.073Z,93091.73
2019-04-10T11:35:37.378Z,93091.59
2019-04-10T11:38:05.733Z,93093.92
2019-04-10T11:40:31.783Z,93093.27
2019-04-10T11:42:59.933Z,93089.17
2019-04-10T11:45:28.610Z,93093.31
2019-04-10T11:47:53.103Z,93090.70
2019-04-10T11:50:18.937Z,93087.30
2019-04-10T11:52:51.900Z,93092.56
2019-04-10T11:55:17.049Z,93093.30
2019-04-10T11:57:41.957Z,93091.81
2019-04-10T12:00:12.061Z,93098.69
2019-04-10T12:02:37.089Z,93095.70
2019-04-10T12:05:09.554Z,93102.42
2019-04-10T12:12:28.017Z,93109.70
2019-04-10T12:14:54.248Z,93106.80
2019-04-10T12:17:20.373Z,93105.55
2019-04-10T12:19:46.715Z,93104.84
2019-04-10T12:22:13.584Z,93108.91
2019-04-10T12:24:40.463Z,93107.52
2019-04-10T12:27:06.555Z,93108.25
2019-04-10T12:29:33.000Z,93110.68
2019-04-10T12:31:59.201Z,93115.22
2019-04-10T12:34:24.972Z,93114.27
2019-04-10T12:36:51.806Z,93119.14
2019-04-10T12:39:18.394Z,93110.73
2019-04-10T12:41:44.512Z,93121.47
2019-04-10T12:44:10.276Z,93115.30
2019-04-10T12:46:37.339Z,93115.39
2019-04-10T12:49:03.835Z,93114.36
2019-04-10T12:51:30.043Z,93114.12
2019-04-10T12:53:56.167Z,93110.34
2019-04-10T12:56:22.299Z,93115.28
2019-04-10T12:58:47.995Z,93120.98
2019-04-10T13:01:14.272Z,93118.05
2019-04-10T13:03:41.170Z,93116.78
2019-04-10T13:06:07.513Z,93115.00
2019-04-10T13:08:51.449Z,93115.80
2019-04-10T13:11:02.457Z,93120.73
2019-04-10T13:13:28.728Z,93127.11
2019-04-10T13:15:54.435Z,93123.95
2019-04-10T13:18:20.507Z,93125.34
2019-04-10T13:20:46.992Z,93124.83
2019-04-10T13:23:14.881Z,93129.19
2019-04-10T13:25:40.831Z,93125.90
2019-04-10T13:28:08.268Z,93129.27
2019-04-10T13:30:46.512Z,93127.88
2019-04-10T13:33:02.572Z,93126.44
2019-04-10T13:35:28.470Z,93133.13
2019-04-10T13:37:54.841Z,93129.73
2019-04-10T13:40:21.577Z,93127.07
2019-04-10T13:42:47.707Z,93125.16
2019-04-10T13:45:13.390Z,93132.83
2019-04-10T13:47:39.103Z,93120.27
2019-04-10T13:50:06.357Z,93128.91
2019-04-10T13:52:32.355Z,93121.86
2019-04-10T13:54:58.903Z,93122.19
2019-04-10T13:57:24.776Z,93122.70
2019-04-10T13:59:50.537Z,93126.06
2019-04-10T14:02:18.353Z,93117.16
2019-04-10T14:04:44.100Z,93125.73
2019-04-10T14:07:11.497Z,93124.95
2019-04-10T14:09:45.970Z,93128.78
2019-04-10T14:12:05.977Z,93125.89
2019-04-10T14:14:32.904Z,93130.83
2019-04-10T14:16:59.333Z,93134.11
2019-04-10T14:19:27.734Z,93130.70
2019-04-10T14:21:53.664Z,93131.63
2019-04-10T14:24:19.958Z,93140.16
2019-04-10T14:26:50.406Z,93142.05
2019-04-10T14:29:16.426Z,93138.70
2019-04-10T14:31:44.729Z,93144.95
2019-04-10T14:34:10.644Z,93141.91
2019-04-10T14:36:36.736Z,93146.73
2019-04-10T14:39:11.033Z,93146.91
2019-04-10T14:41:33.683Z,93150.98
2019-04-10T14:43:59.664Z,93146.27
2019-04-10T14:46:26.294Z,93147.30
2019-04-10T14:48:52.294Z,93155.56
2019-04-10T14:51:18.127Z,93144.88
2019-04-10T14:53:44.217Z,93148.13
2019-04-10T14:56:10.551Z,93149.13
2019-04-10T14:58:37.018Z,93149.95
2019-04-10T15:01:06.804Z,93154.70
2019-04-10T15:03:30.787Z,93155.22
2019-04-10T15:05:58.280Z,93159.80
2019-04-10T15:08:24.563Z,93156.41
2019-04-10T15:10:50.597Z,93157.71
2019-04-10T15:13:20.994Z,93158.50
2019-04-10T15:15:44.899Z,93158.34
2019-04-10T15:18:11.220Z,93155.29
2019-04-10T15:20:37.583Z,93157.08
2019-04-10T15:23:03.452Z,93158.19
2019-04-10T15:25:29.498Z,93164.12
2019-04-10T15:27:55.274Z,93165.22
2019-04-10T15:30:22.223Z,93157.98
2019-04-10T15:32:48.129Z,93158.23
2019-04-10T15:35:13.903Z,93158.51
2019-04-10T15:37:39.667Z,93163.45
2019-04-10T15:40:17.707Z,93165.03
2019-04-10T15:42:34.307Z,93166.58
2019-04-10T15:45:00.779Z,93171.28
2019-04-10T15:47:27.001Z,93164.00
2019-04-10T15:49:53.548Z,93165.07
2019-04-10T15:52:19.943Z,93171.59
2019-04-10T15:54:46.088Z,93171.36
2019-04-10T15:57:12.214Z,93134.67
2019-04-10T15:59:38.569Z,93169.84
2019-04-10T16:02:05.613Z,93168.27
2019-04-10T16:04:31.718Z,93168.82
2019-04-10T16:06:57.866Z,93173.05
2019-04-10T16:09:25.300Z,93173.88
2019-04-10T16:12:02.704Z,93176.86
2019-04-10T16:14:30.267Z,93174.53
2019-04-10T16:17:07.397Z,93175.32
2019-04-10T16:19:38.810Z,93168.08
2019-04-10T16:22:06.831Z,93174.56
2019-04-10T16:24:33.109Z,93174.33
2019-04-10T16:26:59.726Z,93179.55
2019-04-10T16:29:26.736Z,93181.84
2019-04-10T16:31:53.227Z,93180.85
2019-04-10T16:34:19.829Z,93184.73
2019-04-10T16:36:45.871Z,93186.03
2019-04-10T16:39:17.577Z,93184.45
2019-04-10T16:41:44.012Z,93189.13
2019-04-10T16:44:10.977Z,93194.10
2019-04-10T16:46:36.859Z,93199.08
2019-04-10T16:49:02.653Z,93198.81
2019-04-10T16:51:28.631Z,93191.77
2019-04-10T16:53:54.409Z,93196.44
2019-04-10T16:56:21.208Z,93195.69
2019-04-10T16:58:47.945Z,93199.63
2019-04-10T17:01:14.665Z,93195.98
2019-04-10T17:03:40.847Z,93200.42
2019-04-10T17:06:08.138Z,93202.45
2019-04-10T17:08:34.361Z,93200.91
2019-04-10T17:11:00.838Z,93204.82
2019-04-10T17:13:26.720Z,93209.31
2019-04-10T17:15:53.530Z,93211.38
2019-04-10T17:18:19.380Z,93212.72
2019-04-10T17:20:45.178Z,93217.20
2019-04-10T17:23:12.155Z,93215.12
2019-04-10T17:25:38.255Z,93215.66
2019-04-10T17:28:04.379Z,93219.03
2019-04-10T17:30:30.485Z,93221.91
2019-04-10T17:32:56.450Z,93216.94
2019-04-10T17:35:23.316Z,93215.91
2019-04-10T17:37:49.911Z,93215.91
2019-04-10T17:40:28.487Z,93218.52
2019-04-10T17:42:44.327Z,93217.48
2019-04-10T17:45:10.244Z,93222.43
2019-04-10T17:47:36.748Z,93220.06
2019-04-10T17:50:05.690Z,93226.80
2019-04-10T17:52:34.670Z,93230.19
2019-04-10T17:55:00.888Z,93227.06
2019-04-10T17:57:36.491Z,93233.86
2019-04-10T17:59:54.551Z,93233.31
2019-04-10T18:02:21.206Z,93228.64
2019-04-10T18:04:46.980Z,93230.47
2019-04-10T18:07:12.761Z,93233.86
2019-04-10T18:09:38.831Z,93236.47
2019-04-10T18:12:06.071Z,93238.57
2019-04-10T18:14:35.123Z,93237.57
2019-04-10T18:17:00.426Z,93242.23
2019-04-10T18:19:27.406Z,93241.75
2019-04-10T18:21:54.201Z,93246.39
2019-04-10T18:24:20.124Z,93251.34
2019-04-10T18:26:46.262Z,93253.44
2019-04-10T18:29:11.951Z,93254.70
2019-04-10T18:31:37.839Z,93257.56
2019-04-10T18:34:07.049Z,93262.27
2019-04-10T18:36:31.941Z,93266.72
2019-04-10T18:38:58.014Z,93271.95
2019-04-10T18:41:24.220Z,93271.39
2019-04-10T18:43:50.855Z,93277.41
2019-04-10T18:46:19.424Z,93280.80
2019-04-10T18:48:46.678Z,93282.11
2019-04-10T18:51:12.584Z,93288.36
2019-04-10T18:53:45.808Z,93291.76
2019-04-10T18:56:13.218Z,93297.22
2019-04-10T18:58:41.363Z,93292.21
2019-04-10T19:01:18.919Z,93298.73
2019-04-10T19:03:52.618Z,93301.08
2019-04-10T19:06:16.373Z,93300.56
2019-04-10T19:08:42.243Z,93301.56
2019-04-10T19:11:20.028Z,93304.95
2019-04-10T19:13:36.124Z,93308.59
2019-04-10T19:16:02.016Z,93305.98
2019-04-10T19:18:28.120Z,93311.69
2019-04-10T19:20:56.570Z,93308.33
2019-04-10T19:23:22.746Z,93304.17
2019-04-10T19:25:49.852Z,93304.69
2019-04-10T19:28:27.664Z,93302.59
2019-04-10T19:30:45.776Z,93310.14
2019-04-10T19:33:12.128Z,93311.15
2019-04-10T19:35:39.199Z,93310.39
2019-04-10T19:38:07.301Z,93317.67
2019-04-10T19:40:33.977Z,93315.85
2019-04-10T19:43:00.107Z,93312.45
2019-04-10T19:45:27.860Z,93314.03
2019-04-10T19:47:54.718Z,93313.48
2019-04-10T19:50:21.389Z,93315.58
2019-04-10T19:52:47.288Z,93316.09
2019-04-10T19:55:13.592Z,93324.44
2019-04-10T19:57:39.620Z,93318.16
2019-04-10T20:00:08.259Z,93316.06
2019-04-10T20:02:35.174Z,93321.53
2019-04-10T20:05:01.302Z,93320.19
2019-04-10T20:07:27.421Z,93325.41
2019-04-10T20:09:53.219Z,93325.41
2019-04-10T20:12:18.938Z,93324.37
2019-04-10T20:14:44.979Z,93327.53
2019-04-10T20:17:11.564Z,93323.08
2019-04-10T20:19:38.362Z,93324.69
2019-04-10T20:22:04.540Z,93329.66
2019-04-10T20:24:30.243Z,93328.05
2019-04-10T20:26:55.984Z,93328.36
2019-04-10T20:29:23.207Z,93334.06
2019-04-10T20:31:50.514Z,93330.66
2019-04-10T20:34:16.282Z,93332.76
2019-04-10T20:36:42.062Z,93327.27
2019-04-10T20:39:09.339Z,93329.91
2019-04-10T20:41:47.807Z,93326.98
2019-04-10T20:44:03.720Z,93329.60
2019-04-10T20:46:30.511Z,93334.30
2019-04-10T20:48:57.145Z,93333.00
2019-04-10T20:51:23.063Z,93333.52
2019-04-10T20:53:50.783Z,93332.76
2019-04-10T20:56:18.289Z,93334.58
2019-04-10T20:58:44.848Z,93338.80
